Time;durP1;ratioP1;P1;durP2;ratioP2;P2;SDS_P1;SDS_P2;PMS_P1;PMS_P2;Temp;Humidity;BMP_temperature;BMP_pressure;BME280_temperature;BME280_humidity;BME280_pressure;Samples;Min_cycle;Max_cycle;Signal;HPM_P1;HPM_P2
2022/12/30 00:00:22;;;;;;;28.27;3.15;;;;;;;6.27;100.00;100825.44;5050317;28;20039;-37
2022/12/30 00:02:47;;;;;;;36.92;3.53;;;;;;;6.24;100.00;100831.09;5050058;28;20136;-38
2022/12/30 00:05:12;;;;;;;32.67;3.97;;;;;;;6.21;100.00;100826.03;5049977;28;20378;-37
2022/12/30 00:07:38;;;;;;;29.55;3.33;;;;;;;6.20;100.00;100839.56;5050083;28;20112;-36
2022/12/30 00:10:04;;;;;;;27.85;3.30;;;;;;;6.19;100.00;100832.50;5050360;28;20056;-38
2022/12/30 00:35:09;;;;;;;31.80;3.00;;;;;;;5.78;100.00;100846.28;5053103;28;20087;-37
2022/12/30 00:37:34;;;;;;;27.27;2.97;;;;;;;5.76;100.00;100853.59;5052495;28;20408;-37
2022/12/30 00:40:00;;;;;;;25.58;3.00;;;;;;;5.73;100.00;100851.25;5053834;28;20025;-37
2022/12/30 00:45:09;;;;;;;34.25;3.17;;;;;;;5.71;100.00;100861.22;5053575;28;20078;-36
2022/12/30 00:47:34;;;;;;;19.38;2.10;;;;;;;5.72;100.00;100857.59;5053706;28;20242;-35
2022/12/30 00:58:13;;;;;;;22.60;2.03;;;;;;;5.73;100.00;100841.41;5053454;28;20060;-38
2022/12/30 01:00:38;;;;;;;25.38;3.08;;;;;;;5.73;100.00;100836.06;5053226;28;20025;-38
2022/12/30 01:03:03;;;;;;;22.27;2.60;;;;;;;5.69;100.00;100839.19;5053591;28;20024;-38
2022/12/30 01:05:29;;;;;;;33.75;3.15;;;;;;;5.66;100.00;100839.47;5053358;28;20033;-36
2022/12/30 01:07:54;;;;;;;24.77;3.17;;;;;;;5.63;100.00;100845.94;5052195;28;20139;-35
2022/12/30 01:10:19;;;;;;;35.17;3.35;;;;;;;5.61;100.00;100861.31;5051980;28;20035;-36
2022/12/30 01:12:45;;;;;;;22.45;2.38;;;;;;;5.63;100.00;100866.47;5053235;28;20107;-35
2022/12/30 01:15:10;;;;;;;20.20;2.17;;;;;;;5.60;100.00;100856.09;5053355;28;20299;-38
2022/12/30 01:17:35;;;;;;;24.73;2.72;;;;;;;5.59;100.00;100860.59;5051748;28;20032;-36
2022/12/30 01:20:01;;;;;;;15.60;2.38;;;;;;;5.58;100.00;100848.25;5053332;28;20128;-37
2022/12/30 01:22:26;;;;;;;22.05;2.72;;;;;;;5.57;100.00;100853.75;5052906;28;20036;-36
2022/12/30 01:24:52;;;;;;;17.58;2.00;;;;;;;5.57;100.00;100867.09;5053065;28;20472;-36
2022/12/30 01:27:18;;;;;;;24.63;2.78;;;;;;;5.53;100.00;100868.34;5052817;28;20110;-36
2022/12/30 01:29:44;;;;;;;16.45;1.85;;;;;;;5.49;100.00;100870.50;5052925;28;20035;-36
2022/12/30 01:32:11;;;;;;;34.20;3.22;;;;;;;5.48;100.00;100871.50;5052937;28;20511;-38
2022/12/30 01:34:37;;;;;;;21.00;2.28;;;;;;;5.46;100.00;100876.13;5053083;28;20021;-38
2022/12/30 01:37:03;;;;;;;16.70;2.45;;;;;;;5.43;100.00;100882.59;5052769;28;20025;-35
2022/12/30 01:39:28;;;;;;;18.05;2.15;;;;;;;5.44;100.00;100881.59;5051433;28;20112;-36
2022/12/30 01:41:55;;;;;;;20.92;2.80;;;;;;;5.42;100.00;100878.25;5052403;28;20112;-37
2022/12/30 01:44:50;;;;;;;14.32;2.10;;;;;;;5.42;100.00;100888.91;5052705;28;20021;-36
2022/12/30 01:47:43;;;;;;;18.63;2.85;;;;;;;5.43;100.00;100887.94;5051195;28;20511;-37
2022/12/30 01:50:09;;;;;;;19.20;2.38;;;;;;;5.44;100.00;100878.94;5052527;28;20187;-38
2022/12/30 01:52:39;;;;;;;17.98;2.80;;;;;;;5.48;100.00;100874.16;5052288;28;20108;-36
2022/12/30 01:55:09;;;;;;;19.98;2.75;;;;;;;5.40;100.00;100860.72;5051230;28;20028;-36
2022/12/30 01:57:38;;;;;;;22.63;2.30;;;;;;;5.31;100.00;100858.91;5051088;28;20059;-36
2022/12/30 02:00:04;;;;;;;29.85;3.25;;;;;;;5.25;100.00;100860.34;5052355;28;20029;-35
2022/12/30 02:02:30;;;;;;;29.65;2.85;;;;;;;5.21;100.00;100861.63;5052250;28;20032;-38
2022/12/30 02:04:56;;;;;;;19.23;2.13;;;;;;;5.18;100.00;100849.41;5052397;28;20472;-36
2022/12/30 02:07:29;;;;;;;15.20;3.50;;;;;;;5.19;100.00;100831.59;5052304;28;20033;-37
2022/12/30 02:09:55;;;;;;;27.33;2.92;;;;;;;5.21;100.00;100829.59;5052445;28;20037;-38
2022/12/30 02:12:20;;;;;;;24.55;3.28;;;;;;;5.23;100.00;100840.97;5051964;28;20029;-37
2022/12/30 02:14:46;;;;;;;14.95;2.45;;;;;;;5.22;100.00;100853.47;5052494;28;20025;-35
2022/12/30 02:17:30;;;;;;;19.08;3.08;;;;;;;5.21;100.00;100835.81;5052015;28;20068;-38
2022/12/30 02:20:33;;;;;;;21.38;3.05;;;;;;;5.18;100.00;100841.41;5052143;28;20040;-35
2022/12/30 02:23:06;;;;;;;19.92;2.53;;;;;;;5.14;100.00;100847.22;5051989;28;20064;-37
2022/12/30 02:26:07;;;;;;;22.02;3.25;;;;;;;5.10;100.00;100843.97;5050886;28;20072;-37
2022/12/30 02:29:28;;;;;;;18.55;3.40;;;;;;;5.02;100.00;100842.03;5029193;28;20045;-36
2022/12/30 02:32:04;;;;;;;12.50;2.60;;;;;;;4.97;100.00;100833.63;5042166;28;20041;-35
2022/12/30 02:34:38;;;;;;;27.88;3.05;;;;;;;5.00;100.00;100836.03;5051266;28;20028;-37
2022/12/30 02:37:30;;;;;;;23.05;3.33;;;;;;;5.01;100.00;100839.53;5051884;28;20587;-36
2022/12/30 02:40:16;;;;;;;25.17;4.35;;;;;;;4.99;100.00;100841.50;5051707;28;20032;-35
2022/12/30 02:45:40;;;;;;;27.65;3.80;;;;;;;4.99;100.00;100847.66;5050600;28;20087;-36
2022/12/30 02:48:12;;;;;;;19.58;3.10;;;;;;;4.99;100.00;100842.34;5051548;28;20384;-35
2022/12/30 02:53:27;;;;;;;25.73;3.60;;;;;;;4.97;100.00;100844.28;5050142;28;20048;-36
2022/12/30 02:55:52;;;;;;;18.80;3.00;;;;;;;4.96;100.00;100847.97;5050107;28;20024;-38
2022/12/30 02:58:18;;;;;;;21.08;3.13;;;;;;;4.97;100.00;100844.28;5050043;28;20050;-37
2022/12/30 03:04:12;;;;;;;25.38;3.33;;;;;;;4.98;100.00;100835.31;5051987;28;20040;-36
2022/12/30 03:07:01;;;;;;;20.38;3.05;;;;;;;4.99;100.00;100846.84;5040760;28;20037;-37
2022/12/30 03:12:52;;;;;;;20.48;3.33;;;;;;;4.99;100.00;100834.34;5049859;28;20044;-36
2022/12/30 03:15:19;;;;;;;26.60;3.45;;;;;;;4.97;100.00;100827.47;5049788;28;20028;-35
2022/12/30 03:17:46;;;;;;;19.40;2.75;;;;;;;4.97;100.00;100824.78;5049488;28;20086;-36
2022/12/30 03:20:15;;;;;;;25.55;3.65;;;;;;;4.94;100.00;100817.91;5050927;28;20029;-37
2022/12/30 03:28:13;;;;;;;21.55;2.95;;;;;;;4.86;100.00;100804.47;5049919;28;20185;-35
2022/12/30 03:31:06;;;;;;;22.95;3.38;;;;;;;4.85;100.00;100808.16;5032615;28;20064;-36
2022/12/30 03:33:31;;;;;;;25.63;3.75;;;;;;;4.85;100.00;100802.81;5047325;28;20048;-36
2022/12/30 03:36:07;;;;;;;31.90;3.45;;;;;;;4.83;100.00;100800.28;5050606;28;20033;-37
2022/12/30 03:38:35;;;;;;;25.33;3.10;;;;;;;4.82;100.00;100803.09;5049168;28;20029;-37
2022/12/30 03:41:01;;;;;;;22.92;3.45;;;;;;;4.81;100.00;100801.41;5049323;28;20143;-37
2022/12/30 03:43:27;;;;;;;15.02;2.58;;;;;;;4.79;100.00;100796.25;5050516;28;20031;-35
2022/12/30 03:45:53;;;;;;;23.83;3.28;;;;;;;4.77;100.00;100800.03;5049625;28;20029;-35
2022/12/30 03:48:18;;;;;;;22.13;3.90;;;;;;;4.78;100.00;100796.38;5032363;28;20069;-34
2022/12/30 03:50:44;;;;;;;28.83;3.35;;;;;;;4.79;100.00;100814.03;5050404;28;20418;-37
2022/12/30 03:53:10;;;;;;;22.92;3.50;;;;;;;4.78;100.00;100807.03;5050173;28;20108;-34
2022/12/30 03:55:35;;;;;;;18.85;3.78;;;;;;;4.78;100.00;100801.69;5050455;28;20451;-35
2022/12/30 03:58:00;;;;;;;16.58;2.78;;;;;;;4.81;100.00;100812.91;5050477;28;20474;-36
2022/12/30 04:00:26;;;;;;;14.52;2.60;;;;;;;4.82;100.00;100808.44;5050140;28;20098;-38
2022/12/30 04:02:51;;;;;;;13.68;2.97;;;;;;;4.84;100.00;100795.78;5050209;28;20033;-35
2022/12/30 04:05:16;;;;;;;22.13;3.35;;;;;;;4.85;100.00;100797.47;5050215;28;20025;-36
2022/12/30 04:07:42;;;;;;;20.40;3.20;;;;;;;4.85;100.00;100797.47;5049227;28;20520;-36
2022/12/30 04:10:07;;;;;;;19.60;3.05;;;;;;;4.84;100.00;100780.66;5050265;28;20449;-38
2022/12/30 04:12:33;;;;;;;31.30;4.05;;;;;;;4.84;100.00;100782.44;5050746;28;20033;-38
2022/12/30 04:14:58;;;;;;;23.33;3.28;;;;;;;4.81;100.00;100777.41;5050537;28;20025;-37
2022/12/30 04:17:24;;;;;;;18.83;2.92;;;;;;;4.78;100.00;100783.03;5050347;28;20070;-38
2022/12/30 04:19:49;;;;;;;16.88;3.22;;;;;;;4.77;100.00;100784.03;5050142;28;20096;-34
2022/12/30 04:22:14;;;;;;;15.25;2.83;;;;;;;4.74;100.00;100792.31;5050204;28;20388;-36
2022/12/30 04:24:40;;;;;;;26.65;3.33;;;;;;;4.72;100.00;100788.97;5049897;28;20091;-37
2022/12/30 04:27:05;;;;;;;25.58;3.38;;;;;;;4.70;100.00;100785.59;5049992;28;20106;-36
2022/12/30 04:29:30;;;;;;;21.95;3.40;;;;;;;4.68;100.00;100776.91;5049978;28;20025;-35
2022/12/30 04:31:56;;;;;;;22.98;3.55;;;;;;;4.68;100.00;100784.91;5049899;28;20052;-35
2022/12/30 04:34:21;;;;;;;15.98;2.97;;;;;;;4.71;100.00;100785.44;5050221;28;20052;-34
2022/12/30 04:36:46;;;;;;;18.13;3.38;;;;;;;4.69;100.00;100775.94;5050263;28;20445;-36
2022/12/30 04:39:12;;;;;;;16.83;2.60;;;;;;;4.70;100.00;100774.94;5050021;28;20373;-35
2022/12/30 04:41:37;;;;;;;18.38;3.08;;;;;;;4.72;100.00;100780.97;5050102;28;20388;-36
2022/12/30 04:44:04;;;;;;;23.45;2.92;;;;;;;4.74;100.00;100773.63;5050067;28;20408;-37
2022/12/30 04:46:29;;;;;;;14.15;3.22;;;;;;;4.76;100.00;100766.34;5050196;28;20090;-36
2022/12/30 04:48:55;;;;;;;16.73;2.90;;;;;;;4.77;100.00;100763.53;5050278;28;20464;-35
2022/12/30 04:51:21;;;;;;;15.18;2.72;;;;;;;4.79;100.00;100758.91;5049900;28;20029;-37
2022/12/30 04:53:46;;;;;;;15.27;2.75;;;;;;;4.79;100.00;100760.72;5049583;28;20028;-36
2022/12/30 04:56:12;;;;;;;23.25;3.83;;;;;;;4.77;100.00;100757.38;5049591;28;20037;-38
2022/12/30 04:58:37;;;;;;;20.63;3.20;;;;;;;4.76;100.00;100753.00;5053391;28;20112;-35
2022/12/30 05:01:02;;;;;;;15.65;2.58;;;;;;;4.78;100.00;100749.22;5051906;28;20025;-37
2022/12/30 05:03:28;;;;;;;17.55;3.63;;;;;;;4.77;100.00;100749.38;5053521;28;20078;-35
2022/12/30 05:05:53;;;;;;;20.75;3.33;;;;;;;4.74;100.00;100753.19;5053264;28;20049;-37
2022/12/30 05:08:19;;;;;;;20.15;3.47;;;;;;;4.72;100.00;100751.63;5053411;28;20021;-38
2022/12/30 05:10:44;;;;;;;16.40;2.85;;;;;;;4.71;100.00;100760.59;5053186;28;20036;-36
2022/12/30 05:13:09;;;;;;;23.60;3.50;;;;;;;4.70;100.00;100756.28;5053057;28;20036;-37
2022/12/30 05:15:35;;;;;;;26.90;3.33;;;;;;;4.75;100.00;100759.34;5053036;28;20029;-37
2022/12/30 05:18:00;;;;;;;24.40;3.55;;;;;;;4.72;100.00;100772.97;5053280;28;20041;-35
2022/12/30 05:20:26;;;;;;;24.17;3.20;;;;;;;4.71;100.00;100757.94;5052972;28;20104;-35
2022/12/30 05:22:51;;;;;;;20.15;3.03;;;;;;;4.75;100.00;100751.34;5051682;28;20114;-37
2022/12/30 05:28:00;;;;;;;22.77;3.28;;;;;;;4.74;100.00;100747.84;5052739;28;20043;-35
2022/12/30 05:30:26;;;;;;;11.00;3.05;;;;;;;4.75;100.00;100746.84;5034611;28;20048;-36
2022/12/30 05:32:52;;;;;;;24.33;3.35;;;;;;;4.74;100.00;100736.31;5052714;28;20032;-35
2022/12/30 05:35:17;;;;;;;16.10;2.88;;;;;;;4.76;100.00;100729.00;5052729;28;20052;-35
2022/12/30 05:37:42;;;;;;;21.50;3.42;;;;;;;4.73;100.00;100730.16;5052809;28;20024;-36
2022/12/30 05:40:09;;;;;;;15.25;2.97;;;;;;;4.82;100.00;100731.13;5052582;28;20032;-35
2022/12/30 05:42:35;;;;;;;28.77;4.05;;;;;;;4.76;100.00;100723.69;5052743;28;20032;-36
2022/12/30 05:45:00;;;;;;;24.05;3.20;;;;;;;4.76;100.00;100723.69;5052595;28;20025;-35
2022/12/30 05:47:26;;;;;;;9.98;3.25;;;;;;;4.71;100.00;100715.28;5052671;28;20056;-36
2022/12/30 05:49:51;;;;;;;14.35;2.90;;;;;;;4.67;100.00;100713.91;5052022;28;20468;-37
2022/12/30 05:52:16;;;;;;;17.65;3.10;;;;;;;4.64;100.00;100704.38;5051744;28;20392;-35
2022/12/30 05:54:42;;;;;;;17.92;3.40;;;;;;;4.67;100.00;100700.59;5050857;28;20118;-38
2022/12/30 05:57:08;;;;;;;15.27;3.20;;;;;;;4.68;100.00;100704.91;5052271;28;20028;-35
2022/12/30 05:59:33;;;;;;;13.30;3.03;;;;;;;4.61;100.00;100694.03;5050808;28;20369;-35
2022/12/30 06:01:59;;;;;;;18.73;4.28;;;;;;;4.60;100.00;100698.50;5052058;28;20033;-35
2022/12/30 06:04:25;;;;;;;18.90;2.88;;;;;;;4.63;100.00;100700.03;5052188;28;20129;-35
2022/12/30 06:06:50;;;;;;;16.63;2.38;;;;;;;4.59;100.00;100702.16;5052192;28;20504;-35
2022/12/30 06:09:15;;;;;;;16.55;3.58;;;;;;;4.59;100.00;100691.50;5051356;28;20021;-35
2022/12/30 06:11:40;;;;;;;20.75;3.20;;;;;;;4.59;100.00;100698.66;5051857;28;20035;-34
2022/12/30 06:14:06;;;;;;;14.68;3.42;;;;;;;4.58;100.00;100689.81;5052154;28;20056;-37
2022/12/30 06:16:31;;;;;;;17.65;3.33;;;;;;;4.56;100.00;100681.13;5051837;28;20036;-35
2022/12/30 06:18:56;;;;;;;22.35;3.40;;;;;;;4.51;100.00;100675.41;5051805;28;20021;-36
2022/12/30 06:21:22;;;;;;;11.10;3.47;;;;;;;4.46;100.00;100669.66;5051837;28;20103;-34
2022/12/30 06:23:48;;;;;;;20.08;3.50;;;;;;;4.47;100.00;100673.16;5051809;28;20025;-35
2022/12/30 06:26:13;;;;;;;17.40;4.35;;;;;;;4.44;100.00;100671.63;5050271;28;20032;-34
2022/12/30 06:28:39;;;;;;;21.38;3.75;;;;;;;4.43;100.00;100675.28;5051738;28;20629;-34
2022/12/30 06:31:04;;;;;;;24.70;4.97;;;;;;;4.49;100.00;100677.38;5051810;28;20045;-35
2022/12/30 06:33:29;;;;;;;19.58;3.75;;;;;;;4.45;100.00;100676.00;5051702;28;20445;-36
2022/12/30 06:35:55;;;;;;;20.38;3.92;;;;;;;4.46;100.00;100675.00;5051487;28;20426;-34
2022/12/30 06:38:20;;;;;;;25.05;4.68;;;;;;;4.49;100.00;100660.53;5051945;28;20039;-37
2022/12/30 06:40:46;;;;;;;30.17;4.57;;;;;;;4.46;100.00;100656.34;5051558;28;20396;-35
2022/12/30 06:43:12;;;;;;;21.15;3.42;;;;;;;4.49;100.00;100652.53;5051403;28;20041;-36
2022/12/30 06:45:37;;;;;;;27.95;4.35;;;;;;;4.45;100.00;100652.00;5051494;28;20589;-35
2022/12/30 06:48:03;;;;;;;18.02;3.50;;;;;;;4.46;100.00;100637.69;5051478;28;20112;-37
2022/12/30 06:50:29;;;;;;;18.08;4.05;;;;;;;4.46;100.00;100635.03;5051684;28;20033;-35
2022/12/30 06:52:54;;;;;;;23.08;4.05;;;;;;;4.44;100.00;100636.16;5051188;28;20025;-35
2022/12/30 06:55:21;;;;;;;16.45;3.00;;;;;;;4.46;100.00;100627.03;5051606;28;20112;-36
2022/12/30 06:57:47;;;;;;;17.00;3.47;;;;;;;4.49;100.00;100631.22;5051390;28;20132;-36
2022/12/30 07:00:13;;;;;;;23.40;3.40;;;;;;;4.51;100.00;100616.75;5051010;28;20287;-38
2022/12/30 07:02:38;;;;;;;22.50;3.28;;;;;;;4.53;100.00;100617.47;5050980;28;20029;-35
2022/12/30 07:05:04;;;;;;;25.58;3.53;;;;;;;4.54;100.00;100608.47;5050895;28;20029;-37
2022/12/30 07:07:29;;;;;;;19.50;3.50;;;;;;;4.58;100.00;100611.66;5050865;28;20053;-35
2022/12/30 07:09:55;;;;;;;20.13;3.28;;;;;;;4.53;100.00;100604.13;5051174;28;20025;-35
2022/12/30 07:12:20;;;;;;;20.20;3.58;;;;;;;4.59;100.00;100611.53;5050801;28;20048;-36
2022/12/30 07:14:45;;;;;;;17.25;2.70;;;;;;;4.58;100.00;100596.53;5050804;28;20112;-34
2022/12/30 07:17:11;;;;;;;15.85;3.33;;;;;;;4.66;100.00;100595.78;5050695;28;20052;-35
2022/12/30 07:19:36;;;;;;;14.40;3.50;;;;;;;4.62;100.00;100586.41;5050602;28;20094;-36
2022/12/30 07:22:02;;;;;;;24.00;3.67;;;;;;;4.56;100.00;100569.19;5049184;28;20024;-35
2022/12/30 07:24:27;;;;;;;21.73;3.53;;;;;;;4.48;100.00;100569.09;5050697;28;20029;-34
2022/12/30 07:26:52;;;;;;;20.10;3.55;;;;;;;4.48;100.00;100547.78;5050548;28;20059;-36
2022/12/30 07:29:18;;;;;;;16.52;3.63;;;;;;;4.47;100.00;100556.75;5050772;28;20032;-35
2022/12/30 07:31:43;;;;;;;24.90;4.38;;;;;;;4.44;100.00;100557.03;5050344;28;20040;-37
2022/12/30 07:34:09;;;;;;;22.25;4.25;;;;;;;4.38;100.00;100557.66;5049231;28;20116;-36
2022/12/30 07:36:34;;;;;;;20.52;4.25;;;;;;;4.39;100.00;100551.31;5050531;28;20036;-38
2022/12/30 07:38:59;;;;;;;23.02;3.90;;;;;;;4.35;100.00;100549.97;5050615;28;20047;-37
2022/12/30 07:41:26;;;;;;;26.65;4.38;;;;;;;4.38;100.00;100555.00;5047152;28;20027;-37
2022/12/30 07:43:51;;;;;;;17.05;4.35;;;;;;;4.39;100.00;100564.66;5039264;28;20021;-38
2022/12/30 07:46:16;;;;;;;21.55;4.57;;;;;;;4.38;100.00;100555.00;5038414;28;20021;-38
2022/12/30 07:48:42;;;;;;;25.90;4.57;;;;;;;4.45;100.00;100550.75;5040409;28;20032;-35
2022/12/30 07:51:13;;;;;;;18.27;4.75;;;;;;;4.47;100.00;100550.59;5039896;28;20250;-35
2022/12/30 07:53:38;;;;;;;22.50;5.32;;;;;;;4.48;100.00;100545.13;5038343;28;20075;-36
2022/12/30 07:56:05;;;;;;;15.00;4.78;;;;;;;4.59;100.00;100541.41;5039453;28;20500;-38
2022/12/30 07:58:30;;;;;;;19.83;5.38;;;;;;;4.63;100.00;100532.09;5039247;28;20024;-35
2022/12/30 08:00:55;;;;;;;24.80;7.53;;;;;;;4.67;100.00;100541.47;5039100;28;20032;-36
2022/12/30 08:03:21;;;;;;;26.60;6.32;;;;;;;4.65;100.00;100527.47;5038701;28;20025;-36
2022/12/30 08:05:46;;;;;;;20.00;7.22;;;;;;;4.61;100.00;100518.94;5038740;28;20030;-35
2022/12/30 08:08:11;;;;;;;22.73;7.18;;;;;;;4.66;100.00;100510.50;5041916;28;20047;-38
2022/12/30 08:10:37;;;;;;;11.10;6.03;;;;;;;4.64;100.00;100516.97;5039336;28;20026;-36
2022/12/30 08:13:03;;;;;;;26.10;7.07;;;;;;;4.61;100.00;100513.59;5041189;28;20496;-36
2022/12/30 08:15:29;;;;;;;28.27;6.55;;;;;;;4.65;100.00;100503.47;5041122;28;20147;-36
2022/12/30 08:17:54;;;;;;;23.88;6.32;;;;;;;4.63;100.00;100508.09;5038279;28;20124;-38
2022/12/30 08:20:20;;;;;;;24.23;7.40;;;;;;;4.64;100.00;100520.47;5041550;28;20190;-36
2022/12/30 08:22:45;;;;;;;25.40;6.82;;;;;;;4.67;100.00;100516.66;5040312;28;20034;-38
2022/12/30 08:25:10;;;;;;;24.13;8.55;;;;;;;4.74;100.00;100512.38;5040017;28;20029;-37
2022/12/30 08:27:36;;;;;;;17.05;7.65;;;;;;;4.89;100.00;100516.19;5040287;28;20021;-38
2022/12/30 08:30:01;;;;;;;26.60;8.88;;;;;;;4.91;100.00;100511.53;5043858;28;20025;-36
2022/12/30 08:32:26;;;;;;;19.23;8.40;;;;;;;5.00;100.00;100513.31;5041919;28;20625;-36
2022/12/30 08:34:52;;;;;;;21.85;7.93;;;;;;;5.01;100.00;100509.63;5043884;28;20048;-36
2022/12/30 08:37:17;;;;;;;23.58;8.30;;;;;;;5.05;100.00;100505.69;5043662;28;20029;-39
2022/12/30 08:39:42;;;;;;;20.38;7.35;;;;;;;5.00;100.00;100507.09;5040975;28;20086;-40
2022/12/30 08:42:08;;;;;;;19.23;7.65;;;;;;;5.11;100.00;100503.34;5043199;28;20068;-39
2022/12/30 08:44:33;;;;;;;19.27;7.63;;;;;;;5.12;100.00;100489.03;5043218;28;20517;-38
2022/12/30 08:46:58;;;;;;;15.13;6.93;;;;;;;5.18;100.00;100480.41;5043467;28;20017;-37
2022/12/30 08:49:24;;;;;;;21.77;7.30;;;;;;;5.14;100.00;100484.41;5043416;28;20486;-38
2022/12/30 08:51:50;;;;;;;19.83;6.70;;;;;;;5.21;100.00;100475.63;5042797;28;20075;-39
2022/12/30 08:54:16;;;;;;;30.25;7.10;;;;;;;5.23;100.00;100470.94;5045221;28;20040;-38
2022/12/30 08:56:41;;;;;;;22.42;6.72;;;;;;;5.23;100.00;100460.28;5041325;28;20040;-39
2022/12/30 08:59:09;;;;;;;17.67;6.20;;;;;;;5.28;100.00;100462.47;5043928;28;20021;-39
2022/12/30 09:01:40;;;;;;;19.23;6.47;;;;;;;5.27;100.00;100452.81;5042903;28;20099;-40
2022/12/30 09:04:06;;;;;;;22.70;7.15;;;;;;;5.29;100.00;100437.44;5042247;28;20045;-39
2022/12/30 09:06:33;;;;;;;17.50;5.88;;;;;;;5.33;100.00;100433.50;5034003;28;20404;-39
2022/12/30 09:08:59;;;;;;;20.55;6.22;;;;;;;5.47;100.00;100440.06;5032875;28;20163;-39
2022/12/30 09:11:30;;;;;;;22.35;6.20;;;;;;;5.49;100.00;100430.91;5036878;28;20071;-40
2022/12/30 09:13:56;;;;;;;19.35;6.22;;;;;;;5.52;100.00;100424.41;5043212;28;20112;-40
2022/12/30 09:16:22;;;;;;;28.33;6.70;;;;;;;5.60;100.00;100423.63;5044190;28;20120;-37
2022/12/30 09:18:49;;;;;;;19.75;5.90;;;;;;;5.58;100.00;100414.94;5042171;28;20113;-39
2022/12/30 09:21:14;;;;;;;22.27;6.25;;;;;;;5.54;100.00;100402.91;5042094;28;20020;-39
2022/12/30 09:23:39;;;;;;;15.23;5.35;;;;;;;5.63;100.00;100413.44;5043738;28;20081;-40
2022/12/30 09:26:05;;;;;;;14.82;5.82;;;;;;;5.61;100.00;100409.25;5042786;28;20461;-37
2022/12/30 09:28:31;;;;;;;20.33;5.43;;;;;;;5.61;100.00;100406.59;5042049;28;20360;-38
2022/12/30 09:30:56;;;;;;;16.17;4.30;;;;;;;5.60;100.00;100408.44;5043351;28;20504;-38
2022/12/30 09:33:21;;;;;;;14.68;4.78;;;;;;;5.63;100.00;100401.94;5042159;28;20397;-39
2022/12/30 09:35:47;;;;;;;10.23;3.50;;;;;;;5.61;100.00;100385.22;5042710;28;20033;-40
2022/12/30 09:38:12;;;;;;;17.85;4.65;;;;;;;5.60;100.00;100396.91;5041898;28;20025;-39
2022/12/30 09:41:11;;;;;;;15.77;3.90;;;;;;;5.60;100.00;100381.72;5044626;28;20496;-40
2022/12/30 09:44:15;;;;;;;11.30;3.50;;;;;;;5.54;100.00;100376.22;5024775;28;20033;-39
2022/12/30 09:46:45;;;;;;;13.85;3.38;;;;;;;5.52;100.00;100378.22;5036786;28;20053;-38
2022/12/30 09:49:35;;;;;;;14.40;3.53;;;;;;;5.58;100.00;100377.56;5040963;28;20045;-39
2022/12/30 09:52:10;;;;;;;19.52;3.58;;;;;;;5.63;100.00;100362.72;5042064;28;20388;-39
2022/12/30 09:54:37;;;;;;;11.98;3.30;;;;;;;5.59;100.00;100352.56;5040146;28;20099;-39
2022/12/30 09:59:52;;;;;;;11.13;3.03;;;;;;;5.71;100.00;100345.91;5043326;28;20491;-38
2022/12/30 10:02:22;;;;;;;14.65;2.95;;;;;;;5.71;100.00;100337.88;5052532;28;20021;-38
2022/12/30 10:04:47;;;;;;;13.23;2.92;;;;;;;5.70;100.00;100323.69;5051215;28;20140;-39
2022/12/30 10:07:12;;;;;;;8.30;2.38;;;;;;;5.71;100.00;100319.19;5051081;28;20028;-40
2022/12/30 10:09:58;;;;;;;11.32;2.50;;;;;;;5.70;100.00;100317.53;5052196;28;20040;-40
2022/12/30 10:12:35;;;;;;;11.85;2.72;;;;;;;5.73;100.00;100309.19;5050709;28;20031;-38
2022/12/30 10:15:32;;;;;;;14.43;3.33;;;;;;;5.70;100.00;100285.50;5050817;28;20240;-37
2022/12/30 10:18:19;;;;;;;9.75;2.72;;;;;;;5.75;100.00;100277.00;5050946;28;20536;-39
2022/12/30 10:21:09;;;;;;;11.90;2.75;;;;;;;5.77;100.00;100269.66;5052013;28;20029;-39
2022/12/30 10:23:50;;;;;;;11.30;2.28;;;;;;;5.84;100.00;100265.31;5051962;28;20028;-39
2022/12/30 10:26:21;;;;;;;13.00;2.55;;;;;;;5.77;100.00;100251.81;5051693;28;20052;-38
2022/12/30 10:28:49;;;;;;;14.00;2.60;;;;;;;5.84;100.00;100250.13;5051935;28;20039;-36
2022/12/30 10:31:18;;;;;;;11.45;2.67;;;;;;;5.85;100.00;100242.97;5050243;28;20049;-40
2022/12/30 10:33:44;;;;;;;7.68;2.28;;;;;;;5.87;100.00;100232.94;5051808;28;20365;-37
2022/12/30 10:36:17;;;;;;;8.05;2.10;;;;;;;5.89;100.00;100221.09;5050372;28;20083;-39
2022/12/30 10:38:42;;;;;;;7.63;2.65;;;;;;;5.94;100.00;100217.94;5050475;28;20063;-38
2022/12/30 10:41:19;;;;;;;10.65;2.15;;;;;;;5.93;100.00;100195.75;5051591;28;20056;-37
2022/12/30 10:44:05;;;;;;;12.05;2.30;;;;;;;5.94;100.00;100200.09;5051536;28;20029;-38
2022/12/30 10:46:51;;;;;;;10.30;2.83;;;;;;;5.96;100.00;100188.41;5051603;28;20020;-37
2022/12/30 10:49:25;;;;;;;12.40;2.47;;;;;;;6.04;100.00;100177.72;5051337;28;20033;-39
2022/12/30 10:51:50;;;;;;;8.13;2.30;;;;;;;6.08;100.00;100161.19;5051309;28;20455;-37
2022/12/30 10:54:15;;;;;;;9.90;2.58;;;;;;;6.09;100.00;100154.00;5044417;28;20032;-39
2022/12/30 10:56:42;;;;;;;6.18;2.10;;;;;;;6.10;100.00;100135.13;5029506;28;20033;-39
2022/12/30 10:59:17;;;;;;;6.65;2.42;;;;;;;6.18;100.00;100128.94;5034301;28;20456;-39
2022/12/30 11:01:45;;;;;;;9.85;2.35;;;;;;;6.19;100.00;100116.41;5056091;28;20025;-38
2022/12/30 11:04:33;;;;;;;7.95;1.90;;;;;;;6.27;100.00;100095.84;5050461;28;20045;-39
2022/12/30 11:07:01;;;;;;;9.80;2.20;;;;;;;6.31;100.00;100086.47;5050308;28;20029;-36
2022/12/30 11:09:27;;;;;;;5.47;2.10;;;;;;;6.32;100.00;100077.47;5047072;28;20036;-39
2022/12/30 11:14:43;;;;;;;7.28;2.65;;;;;;;6.40;100.00;100063.22;5050134;28;20048;-39
2022/12/30 11:17:14;;;;;;;12.48;2.10;;;;;;;6.49;100.00;100072.03;5047798;28;20025;-39
2022/12/30 11:19:40;;;;;;;7.97;2.40;;;;;;;6.56;100.00;100046.28;5050276;28;20032;-37
2022/12/30 11:22:05;;;;;;;12.55;2.85;;;;;;;6.55;100.00;100045.41;5048773;28;20033;-39
2022/12/30 11:24:31;;;;;;;9.38;2.28;;;;;;;6.58;100.00;100028.19;5049285;28;20100;-37
2022/12/30 11:26:56;;;;;;;7.50;3.15;;;;;;;6.59;100.00;100021.88;5041411;28;20032;-39
2022/12/30 11:29:22;;;;;;;10.18;1.70;;;;;;;6.64;100.00;100014.16;5036878;28;20040;-40
2022/12/30 11:31:51;;;;;;;11.15;2.13;;;;;;;6.65;100.00;99997.09;5032096;28;20057;-39
2022/12/30 11:34:18;;;;;;;10.77;2.55;;;;;;;6.58;100.00;100004.13;5047218;28;20124;-39
2022/12/30 11:36:43;;;;;;;8.38;1.92;;;;;;;6.46;100.00;99993.03;5039349;28;20421;-39
2022/12/30 11:39:27;;;;;;;10.88;2.17;;;;;;;6.44;100.00;99967.47;5028761;28;20032;-37
2022/12/30 11:41:56;;;;;;;12.40;3.42;;;;;;;6.38;100.00;99955.66;5028328;28;20110;-38
2022/12/30 11:44:24;;;;;;;11.23;2.03;;;;;;;6.34;100.00;99957.84;5031160;28;20024;-40
2022/12/30 11:46:58;;;;;;;13.05;2.10;;;;;;;6.38;100.00;99948.47;5039960;28;20025;-36
2022/12/30 11:49:35;;;;;;;5.35;1.60;;;;;;;6.38;100.00;99948.47;5039540;28;20433;-37
2022/12/30 11:52:03;;;;;;;9.35;2.70;;;;;;;6.34;100.00;99922.25;5029750;28;20040;-37
2022/12/30 11:54:30;;;;;;;;;;;;;;;6.32;100.00;99925.13;5034913;28;20021;-36
2022/12/30 11:57:00;;;;;;;14.65;2.05;;;;;;;6.36;100.00;99896.19;5030203;28;19990;-36
2022/12/30 11:59:31;;;;;;;12.70;2.10;;;;;;;6.33;100.00;99900.06;5032955;28;20029;-36
2022/12/30 12:01:59;;;;;;;13.45;2.30;;;;;;;6.35;100.00;99895.38;5028968;28;20037;-38
2022/12/30 12:04:51;;;;;;;12.75;2.20;;;;;;;6.47;100.00;99892.28;5038197;28;20469;-38
2022/12/30 12:07:16;;;;;;;8.45;2.20;;;;;;;6.46;100.00;99880.75;5039287;28;20559;-36
2022/12/30 12:09:54;;;;;;;8.98;2.00;;;;;;;6.50;100.00;99876.75;5050188;28;20028;-38
2022/12/30 12:12:22;;;;;;;13.30;2.25;;;;;;;6.58;100.00;99868.66;5033552;28;20028;-36
2022/12/30 12:15:04;;;;;;;9.07;1.75;;;;;;;6.56;100.00;99857.28;5042782;28;20048;-36
2022/12/30 12:17:46;;;;;;;13.90;2.38;;;;;;;6.59;100.00;99838.22;5044080;28;20498;-40
2022/12/30 12:20:28;;;;;;;10.38;2.00;;;;;;;6.61;100.00;99824.69;5034115;28;20037;-40
2022/12/30 12:23:01;;;;;;;12.85;2.20;;;;;;;6.60;100.00;99813.13;5045620;28;20118;-40
2022/12/30 12:25:33;;;;;;;12.23;1.60;;;;;;;6.62;100.00;99802.28;5040740;28;20040;-41